createdAt,value
2023-04-02T00:06:08.689Z,1.00
2023-04-02T00:21:10.169Z,1.00
2023-04-02T00:36:11.703Z,1.10
2023-04-02T00:51:13.259Z,1.27
2023-04-02T01:06:14.750Z,1.20
2023-04-02T01:21:16.270Z,1.27
2023-04-02T01:36:17.791Z,1.20
2023-04-02T01:51:19.332Z,1.10
2023-04-02T02:06:20.803Z,1.10
2023-04-02T02:21:22.312Z,1.27
2023-04-02T02:36:23.831Z,1.27
2023-04-02T02:51:25.354Z,1.10
2023-04-02T03:06:26.834Z,1.13
2023-04-02T03:21:28.374Z,1.40
2023-04-02T03:36:29.834Z,1.13
2023-04-02T03:51:31.315Z,1.20
2023-04-02T04:06:32.778Z,1.30
2023-04-02T04:21:34.294Z,1.20
2023-04-02T04:36:35.824Z,1.10
2023-04-02T04:51:37.284Z,0.97
2023-04-02T05:06:38.753Z,1.30
2023-04-02T05:21:40.266Z,1.20
2023-04-02T05:36:41.761Z,1.33
2023-04-02T05:51:43.256Z,2.50
2023-04-02T06:06:44.738Z,2.17
2023-04-02T06:21:46.222Z,2.13
2023-04-02T06:36:47.755Z,2.00
2023-04-02T06:51:49.217Z,1.90
2023-04-02T07:06:50.652Z,1.50
2023-04-02T07:21:52.161Z,1.50
2023-04-02T07:36:53.614Z,1.40
2023-04-02T07:51:55.098Z,1.70
2023-04-02T08:06:56.592Z,1.67
2023-04-02T08:21:58.103Z,1.73
2023-04-02T08:36:59.584Z,1.83
2023-04-02T08:52:03.935Z,1.50
2023-04-02T09:07:05.445Z,1.50
2023-04-02T09:22:06.954Z,1.63
2023-04-02T09:37:08.439Z,1.70
2023-04-02T09:52:09.910Z,1.33
2023-04-02T10:07:11.416Z,1.40
2023-04-02T10:22:12.917Z,1.40
2023-04-02T10:37:14.480Z,1.40
2023-04-02T10:52:15.924Z,1.40
2023-04-02T11:07:17.457Z,1.20
2023-04-02T11:22:18.948Z,1.53
2023-04-02T11:37:20.419Z,1.40
2023-04-02T11:52:21.934Z,1.23
2023-04-02T12:07:23.418Z,1.23
2023-04-02T12:22:24.996Z,1.40
2023-04-02T12:37:26.711Z,1.40
2023-04-02T12:52:28.183Z,1.23
2023-04-02T13:07:29.707Z,1.10
2023-04-02T13:22:31.343Z,1.20
2023-04-02T13:37:32.850Z,1.20
2023-04-02T13:52:34.340Z,1.20
2023-04-02T14:07:35.840Z,1.03
2023-04-02T14:22:37.361Z,0.87
2023-04-02T14:37:38.881Z,0.90
2023-04-02T14:52:40.329Z,1.10
2023-04-02T15:07:41.810Z,1.30
2023-04-02T15:22:43.297Z,1.10
2023-04-02T15:37:44.829Z,1.13
2023-04-02T15:52:46.309Z,1.10
2023-04-02T16:07:47.899Z,0.90
2023-04-02T16:22:59.485Z,1.00
2023-04-02T16:38:01.852Z,1.00
2023-04-02T16:53:03.369Z,1.20
2023-04-02T17:08:04.895Z,0.90
2023-04-02T17:23:06.449Z,1.30
2023-04-02T17:38:08.012Z,1.10
2023-04-02T17:53:09.537Z,1.20
2023-04-02T18:08:11.094Z,1.13
2023-04-02T18:23:12.658Z,1.10
2023-04-02T18:38:14.185Z,1.33
2023-04-02T18:53:15.749Z,1.17
2023-04-02T19:08:17.322Z,1.17
2023-04-02T19:23:18.849Z,1.07
2023-04-02T19:38:20.374Z,1.17
2023-04-02T19:53:21.863Z,1.00
2023-04-02T20:08:23.386Z,1.00
2023-04-02T20:23:25.113Z,1.10
2023-04-02T20:38:26.577Z,1.10
2023-04-02T20:53:28.019Z,1.10
2023-04-02T21:08:29.495Z,1.27
2023-04-02T21:23:30.991Z,1.10
2023-04-02T21:38:32.482Z,1.10
2023-04-02T21:53:33.999Z,1.10
2023-04-02T22:08:35.490Z,1.03
2023-04-02T22:23:37.172Z,1.03
2023-04-02T22:38:38.678Z,1.10
2023-04-02T22:53:40.175Z,0.90
2023-04-02T23:08:41.695Z,0.90
2023-04-02T23:23:43.211Z,1.10
2023-04-02T23:38:44.680Z,1.10
2023-04-02T23:53:46.177Z,1.23
